createdAt,value
2018-09-24T00:00:18.321Z,21.2
2018-09-24T00:01:05.574Z,21.2
2018-09-24T00:01:55.362Z,21.2
2018-09-24T00:02:46.594Z,21.2
2018-09-24T00:03:36.098Z,21.2
2018-09-24T00:04:25.269Z,21.2
2018-09-24T00:05:15.883Z,21.2
2018-09-24T00:06:06.558Z,21.2
2018-09-24T00:06:56.343Z,21.2
2018-09-24T00:07:46.456Z,21.2
2018-09-24T00:08:36.715Z,21.2
2018-09-24T00:09:25.958Z,21.2
2018-09-24T00:10:16.790Z,21.2
2018-09-24T00:11:06.615Z,21.2
2018-09-24T00:11:56.696Z,21.2
2018-09-24T00:12:46.460Z,21.2
2018-09-24T00:13:35.933Z,21.2
2018-09-24T00:14:26.575Z,21.2
2018-09-24T00:15:17.515Z,21.2
2018-09-24T00:16:07.271Z,21.2
2018-09-24T00:16:56.520Z,21.2
2018-09-24T00:17:47.473Z,21.2
2018-09-24T00:18:37.167Z,21.2
2018-09-24T00:19:27.557Z,21.2
2018-09-24T00:20:17.909Z,21.2
2018-09-24T00:21:07.389Z,21.2
2018-09-24T00:21:57.207Z,21.2
2018-09-24T00:22:47.029Z,21.2
2018-09-24T00:23:37.827Z,21.2
2018-09-24T00:24:27.832Z,21.2
2018-09-24T00:25:16.829Z,21.2
2018-09-24T00:26:57.237Z,21.2
2018-09-24T00:28:37.945Z,21.2
2018-09-24T00:29:27.985Z,21.2
2018-09-24T00:31:07.609Z,21.2
2018-09-24T00:31:57.622Z,21.2
2018-09-24T00:35:18.746Z,21.2
2018-09-24T00:56:04.558Z,21.1
2018-09-24T00:57:45.472Z,21.1
2018-09-24T01:01:54.927Z,21.1
2018-09-24T01:02:45.397Z,21.1
2018-09-24T01:04:25.419Z,21.1
2018-09-24T01:06:05.831Z,21.1
2018-09-24T01:06:55.292Z,21.1
2018-09-24T01:07:45.971Z,21.1
2018-09-24T01:08:35.154Z,21.1
2018-09-24T01:09:24.922Z,21.1
2018-09-24T01:10:15.309Z,21.1
2018-09-24T01:11:05.666Z,21.1
2018-09-24T01:11:55.164Z,21.1
2018-09-24T01:12:45.224Z,21.1
2018-09-24T01:13:35.571Z,21.1
2018-09-24T01:14:25.956Z,21.1
2018-09-24T01:15:15.394Z,21.1
2018-09-24T01:16:06.250Z,21.1
2018-09-24T01:16:56.292Z,21.1
2018-09-24T01:17:46.696Z,21.1
2018-09-24T01:18:36.255Z,21.1
2018-09-24T01:19:25.988Z,21.1
2018-09-24T01:20:15.487Z,21.1
2018-09-24T01:21:06.657Z,21.1
2018-09-24T01:21:56.449Z,21.1
2018-09-24T01:22:46.773Z,21.1
2018-09-24T01:23:36.323Z,21.1
2018-09-24T01:24:26.145Z,21.1
2018-09-24T01:25:16.458Z,21.1
2018-09-24T01:26:06.830Z,21.1
2018-09-24T01:26:56.307Z,21.1
2018-09-24T01:27:47.154Z,21.1
2018-09-24T01:28:36.718Z,21.1
2018-09-24T01:29:27.306Z,21.1
2018-09-24T01:30:16.293Z,21.1
2018-09-24T01:31:07.436Z,21.1
2018-09-24T01:31:57.740Z,21.1
2018-09-24T01:32:47.300Z,21.1
2018-09-24T01:33:37.072Z,21.1
2018-09-24T01:34:27.075Z,21.1
2018-09-24T01:35:16.890Z,21.1
2018-09-24T01:36:07.897Z,21
2018-09-24T01:36:57.675Z,21
2018-09-24T01:37:47.650Z,21
2018-09-24T01:38:37.520Z,21.1
2018-09-24T01:39:28.029Z,21
2018-09-24T01:40:17.582Z,21
2018-09-24T01:41:07.959Z,21.1
2018-09-24T01:41:58.260Z,21.1
2018-09-24T01:42:47.537Z,21
2018-09-24T01:43:38.215Z,21
2018-09-24T01:44:28.255Z,21.1
2018-09-24T01:45:17.503Z,21
2018-09-24T01:46:07.519Z,21.1
2018-09-24T01:46:57.874Z,21
2018-09-24T01:47:47.914Z,21
2018-09-24T01:48:38.350Z,21
2018-09-24T01:49:28.513Z,21
2018-09-24T01:50:18.345Z,21
2018-09-24T01:51:08.164Z,21
2018-09-24T01:51:58.793Z,21
2018-09-24T01:52:48.913Z,21
2018-09-24T01:53:38.106Z,21
2018-09-24T01:54:29.031Z,21
2018-09-24T01:55:18.237Z,20.9
2018-09-24T01:56:08.826Z,21
2018-09-24T01:56:58.631Z,21
2018-09-24T01:57:48.951Z,21
2018-09-24T01:58:39.404Z,21
2018-09-24T01:59:27.986Z,21
2018-09-24T02:00:19.505Z,21
2018-09-24T02:01:08.679Z,21
2018-09-24T02:01:58.502Z,21
2018-09-24T02:02:49.502Z,21
2018-09-24T02:03:39.146Z,21
2018-09-24T02:04:28.645Z,21
2018-09-24T02:05:20.090Z,21
2018-09-24T02:06:09.390Z,20.9
2018-09-24T02:06:59.401Z,21
2018-09-24T02:07:49.718Z,21
2018-09-24T02:08:39.453Z,20.9
2018-09-24T02:09:29.575Z,21
2018-09-24T02:10:19.351Z,20.9
2018-09-24T02:11:10.467Z,20.9
2018-09-24T02:11:59.469Z,20.9
2018-09-24T02:12:49.758Z,21
2018-09-24T02:13:39.860Z,21
2018-09-24T02:14:30.197Z,20.9
2018-09-24T02:15:20.140Z,20.9
2018-09-24T02:16:09.982Z,20.9
2018-09-24T02:17:00.220Z,20.9
2018-09-24T02:17:50.490Z,20.9
2018-09-24T02:18:41.345Z,20.9
2018-09-24T02:19:31.082Z,20.9
2018-09-24T02:20:20.370Z,20.9
2018-09-24T02:21:11.480Z,20.9
2018-09-24T02:22:01.308Z,20.9
2018-09-24T02:22:50.022Z,20.9
2018-09-24T02:23:40.113Z,20.9
2018-09-24T02:24:31.604Z,20.9
2018-09-24T02:25:21.492Z,20.9
2018-09-24T02:26:11.581Z,20.9
2018-09-24T02:27:01.679Z,20.9
2018-09-24T02:27:51.709Z,20.9
2018-09-24T02:28:41.839Z,20.9
2018-09-24T02:29:31.814Z,20.9
2018-09-24T02:30:21.157Z,20.9
2018-09-24T02:31:11.779Z,20.9
2018-09-24T02:32:02.074Z,20.9
2018-09-24T02:32:51.680Z,20.9
2018-09-24T02:33:41.898Z,20.9
2018-09-24T02:34:32.289Z,20.9
2018-09-24T02:35:22.076Z,20.9
2018-09-24T02:36:12.106Z,20.9
2018-09-24T02:37:02.200Z,20.9
2018-09-24T02:37:52.271Z,20.9
2018-09-24T02:38:42.257Z,20.9
2018-09-24T02:39:32.326Z,20.9
2018-09-24T02:40:22.661Z,20.9
2018-09-24T02:41:12.726Z,20.9
2018-09-24T02:42:02.747Z,20.9
2018-09-24T02:42:52.661Z,20.9
2018-09-24T02:43:42.365Z,20.9
2018-09-24T02:44:32.772Z,20.9
2018-09-24T02:45:23.425Z,20.9
2018-09-24T02:46:12.579Z,20.9
2018-09-24T02:47:03.168Z,20.9
2018-09-24T02:47:53.216Z,20.9
2018-09-24T02:48:43.041Z,20.9
2018-09-24T02:49:33.951Z,20.9
2018-09-24T02:50:22.592Z,20.9
2018-09-24T02:51:12.636Z,20.9
2018-09-24T02:52:02.995Z,20.9
2018-09-24T02:52:53.336Z,20.9
2018-09-24T02:53:42.547Z,20.9
2018-09-24T02:54:33.802Z,20.9
2018-09-24T02:55:23.020Z,20.9
2018-09-24T02:56:13.596Z,20.9
2018-09-24T02:57:04.158Z,20.9
2018-09-24T02:57:54.538Z,20.9
2018-09-24T02:58:44.365Z,20.9
2018-09-24T02:59:34.104Z,20.9
2018-09-24T03:00:24.278Z,20.9
2018-09-24T03:01:14.451Z,20.9
2018-09-24T03:02:04.370Z,20.9
2018-09-24T03:02:54.541Z,20.9
2018-09-24T03:03:43.570Z,20.9
2018-09-24T03:04:34.855Z,20.9
2018-09-24T03:05:24.941Z,20.9
2018-09-24T03:06:14.652Z,20.9
2018-09-24T03:07:04.412Z,20.9
2018-09-24T03:07:54.479Z,20.9
2018-09-24T03:08:44.317Z,20.9
2018-09-24T03:09:34.682Z,20.9
2018-09-24T03:10:24.940Z,20.9
2018-09-24T03:11:14.729Z,20.9
2018-09-24T03:12:04.282Z,20.9
2018-09-24T03:12:54.630Z,20.8
2018-09-24T03:13:45.234Z,20.9
2018-09-24T03:14:35.257Z,20.9
2018-09-24T03:15:25.592Z,20.8
2018-09-24T03:16:14.839Z,20.9
2018-09-24T03:17:05.191Z,20.9
2018-09-24T03:17:55.609Z,20.9
2018-09-24T03:18:45.846Z,20.8
2018-09-24T03:19:35.130Z,20.8
2018-09-24T03:20:25.486Z,20.8
2018-09-24T03:21:15.757Z,20.8
2018-09-24T03:22:05.838Z,20.8
2018-09-24T03:22:55.356Z,20.8
2018-09-24T03:23:46.221Z,20.8
2018-09-24T03:24:35.415Z,20.8
2018-09-24T03:25:27.648Z,20.8
2018-09-24T03:26:17.151Z,20.8
2018-09-24T03:27:06.591Z,20.8
2018-09-24T03:27:56.304Z,20.8
2018-09-24T03:28:45.761Z,20.8
2018-09-24T03:29:35.833Z,20.8
2018-09-24T03:30:26.266Z,20.8
2018-09-24T03:31:16.026Z,20.8
2018-09-24T03:32:06.141Z,20.8
2018-09-24T03:32:56.383Z,20.8
2018-09-24T03:33:46.776Z,20.8
2018-09-24T03:34:37.035Z,20.8
2018-09-24T03:35:27.113Z,20.8
2018-09-24T03:36:16.023Z,20.8
2018-09-24T03:37:07.243Z,20.8
2018-09-24T03:37:57.013Z,20.8
2018-09-24T03:38:47.415Z,20.8
2018-09-24T03:39:37.755Z,20.8
2018-09-24T03:40:27.212Z,20.8
2018-09-24T03:41:16.495Z,20.8
2018-09-24T03:42:09.317Z,20.8
2018-09-24T03:42:57.370Z,20.8
2018-09-24T03:43:47.172Z,20.8
2018-09-24T03:44:37.251Z,20.8
2018-09-24T03:45:27.425Z,20.8
2018-09-24T03:46:16.555Z,20.8
2018-09-24T03:47:07.216Z,20.8
2018-09-24T03:47:57.520Z,20.8
2018-09-24T03:48:46.975Z,20.8
2018-09-24T03:49:37.296Z,20.8
2018-09-24T03:50:27.944Z,20.8
2018-09-24T03:51:17.806Z,20.8
2018-09-24T03:52:08.367Z,20.8
2018-09-24T03:52:56.989Z,20.8
2018-09-24T03:53:47.941Z,20.8
2018-09-24T03:54:37.620Z,20.8
2018-09-24T03:55:28.967Z,20.8
2018-09-24T03:56:18.071Z,20.8
2018-09-24T03:57:08.161Z,20.8
2018-09-24T03:57:57.720Z,20.8
2018-09-24T03:58:48.996Z,20.8
2018-09-24T03:59:38.420Z,20.8
2018-09-24T04:00:28.724Z,20.8
2018-09-24T04:01:18.821Z,20.8
2018-09-24T04:02:08.016Z,20.8
2018-09-24T04:02:58.888Z,20.8
2018-09-24T04:03:49.288Z,20.8
2018-09-24T04:04:38.180Z,20.8
2018-09-24T04:05:29.093Z,20.8
2018-09-24T04:06:19.515Z,20.8
2018-09-24T04:07:08.963Z,20.8
2018-09-24T04:07:58.686Z,20.8
2018-09-24T04:08:49.073Z,20.8
2018-09-24T04:09:40.716Z,20.8
2018-09-24T04:10:29.205Z,20.8
2018-09-24T04:11:19.543Z,20.8
2018-09-24T04:12:08.765Z,20.8
2018-09-24T04:12:59.385Z,20.8
2018-09-24T04:13:48.563Z,20.8
2018-09-24T04:14:39.782Z,20.8
2018-09-24T04:15:29.235Z,20.8
2018-09-24T04:16:19.662Z,20.8
2018-09-24T04:17:08.852Z,20.8
2018-09-24T04:18:00.053Z,20.8
2018-09-24T04:18:49.840Z,20.8
2018-09-24T04:19:42.257Z,20.8
2018-09-24T04:20:30.532Z,20.8
2018-09-24T04:21:19.665Z,20.8
2018-09-24T04:22:09.811Z,20.8
2018-09-24T04:22:59.047Z,20.7
2018-09-24T04:23:49.599Z,20.8
2018-09-24T04:24:40.585Z,20.8
2018-09-24T04:25:30.146Z,20.8
2018-09-24T04:26:22.231Z,20.8
2018-09-24T04:27:10.458Z,20.8
2018-09-24T04:28:01.050Z,20.8
2018-09-24T04:28:50.892Z,20.8
2018-09-24T04:29:39.212Z,20.7
2018-09-24T04:30:29.842Z,20.8
2018-09-24T04:31:21.124Z,20.7
2018-09-24T04:32:10.802Z,20.7
2018-09-24T04:33:01.769Z,20.8
2018-09-24T04:33:51.244Z,20.8
2018-09-24T04:34:41.397Z,20.7
2018-09-24T04:35:31.376Z,20.7
2018-09-24T04:36:21.770Z,20.7
2018-09-24T04:37:10.929Z,20.7
2018-09-24T04:38:01.517Z,20.7
2018-09-24T04:38:51.609Z,20.7
2018-09-24T04:39:43.333Z,20.7
2018-09-24T04:40:31.521Z,20.8
2018-09-24T04:41:21.811Z,20.7
2018-09-24T04:42:12.282Z,20.7
2018-09-24T04:43:01.978Z,20.7
2018-09-24T04:43:52.076Z,20.7
2018-09-24T04:44:41.458Z,20.7
2018-09-24T04:45:32.111Z,20.7
2018-09-24T04:46:21.893Z,20.7
2018-09-24T04:47:12.251Z,20.7
2018-09-24T04:48:01.933Z,20.7
2018-09-24T04:48:51.759Z,20.7
2018-09-24T04:49:42.137Z,20.7
2018-09-24T04:50:32.235Z,20.7
2018-09-24T04:51:22.806Z,20.7
2018-09-24T04:52:13.365Z,20.7
2018-09-24T04:53:03.173Z,20.7
2018-09-24T04:53:52.153Z,20.7
2018-09-24T04:54:42.800Z,20.7
2018-09-24T04:55:32.870Z,20.7
2018-09-24T04:56:22.943Z,20.7
2018-09-24T04:57:13.524Z,20.7
2018-09-24T04:58:02.773Z,20.7
2018-09-24T04:58:53.658Z,20.7
2018-09-24T04:59:42.730Z,20.7
2018-09-24T05:00:32.726Z,20.7
2018-09-24T05:01:23.587Z,20.7
2018-09-24T05:02:13.623Z,20.7
2018-09-24T05:03:03.145Z,20.7
2018-09-24T05:03:53.509Z,20.7
2018-09-24T05:04:43.156Z,20.7
2018-09-24T05:05:33.010Z,20.7
2018-09-24T05:06:22.777Z,20.7
2018-09-24T05:07:14.292Z,20.7
2018-09-24T05:24:56.151Z,20.6
2018-09-24T05:25:45.326Z,20.6
2018-09-24T05:26:35.443Z,20.6
2018-09-24T05:27:25.943Z,20.7
2018-09-24T05:28:15.776Z,20.6
2018-09-24T05:29:05.281Z,20.6
2018-09-24T05:29:56.300Z,20.6
2018-09-24T05:30:45.990Z,20.6
2018-09-24T05:31:36.298Z,20.6
2018-09-24T05:32:27.797Z,20.6
2018-09-24T05:33:15.614Z,20.6
2018-09-24T05:34:06.077Z,20.7
2018-09-24T05:34:56.298Z,20.7
2018-09-24T05:35:45.561Z,20.6
2018-09-24T05:36:35.497Z,20.6
2018-09-24T05:37:25.713Z,20.6
2018-09-24T05:38:16.073Z,20.6
2018-09-24T05:39:05.560Z,20.7
2018-09-24T05:39:56.655Z,20.6
2018-09-24T05:40:46.248Z,20.6
2018-09-24T05:41:36.265Z,20.7
2018-09-24T05:42:26.863Z,20.7
2018-09-24T05:43:16.690Z,20.7
2018-09-24T05:44:07.264Z,20.7
2018-09-24T05:44:58.207Z,20.7
2018-09-24T05:45:46.531Z,20.7
2018-09-24T05:46:36.957Z,20.7
2018-09-24T05:47:26.424Z,20.6
2018-09-24T05:48:17.025Z,20.7
2018-09-24T05:49:06.325Z,20.7
2018-09-24T05:49:57.740Z,20.7
2018-09-24T05:50:47.727Z,20.7
2018-09-24T05:51:37.705Z,20.7
2018-09-24T05:52:29.848Z,20.7
2018-09-24T05:53:19.468Z,20.7
2018-09-24T05:54:09.199Z,20.7
2018-09-24T05:54:58.851Z,20.7
2018-09-24T05:55:51.771Z,20.7
2018-09-24T05:56:40.370Z,20.7
2018-09-24T05:57:28.315Z,20.7
2018-09-24T05:58:18.054Z,20.7
2018-09-24T05:59:07.580Z,20.7
2018-09-24T05:59:58.441Z,20.7
2018-09-24T06:00:49.377Z,20.7
2018-09-24T06:01:38.094Z,20.7
2018-09-24T06:02:28.655Z,20.7
2018-09-24T06:03:18.469Z,20.7
2018-09-24T06:04:08.529Z,20.7
2018-09-24T06:04:58.684Z,20.7
2018-09-24T06:05:49.124Z,20.7
2018-09-24T06:06:38.719Z,20.7
2018-09-24T06:07:28.704Z,20.7
2018-09-24T06:08:19.106Z,20.7
2018-09-24T06:09:08.606Z,20.7
2018-09-24T06:09:58.636Z,20.7
2018-09-24T06:10:50.731Z,20.7
2018-09-24T06:11:40.204Z,20.7
2018-09-24T06:12:29.971Z,20.7
2018-09-24T06:13:20.448Z,20.7
2018-09-24T06:14:10.049Z,20.7
2018-09-24T06:14:58.434Z,20.7
2018-09-24T06:15:49.120Z,20.7
2018-09-24T06:16:40.041Z,20.7
2018-09-24T06:17:28.718Z,20.7
2018-09-24T06:18:19.928Z,20.7
2018-09-24T06:19:10.699Z,20.7
2018-09-24T06:19:59.540Z,20.7
2018-09-24T06:20:49.125Z,20.7
2018-09-24T06:21:40.158Z,20.7
2018-09-24T06:22:29.641Z,20.7
2018-09-24T06:23:19.665Z,20.7
2018-09-24T06:24:10.280Z,20.7
2018-09-24T06:25:00.080Z,20.7
2018-09-24T06:25:50.169Z,20.7
2018-09-24T06:26:40.408Z,20.7
2018-09-24T06:27:30.235Z,20.7
2018-09-24T06:28:20.806Z,20.7
2018-09-24T06:29:10.125Z,20.7
2018-09-24T06:30:00.725Z,20.8
2018-09-24T06:30:50.470Z,20.7
2018-09-24T06:31:40.930Z,20.7
2018-09-24T06:32:30.653Z,20.7
2018-09-24T06:33:20.715Z,20.8
2018-09-24T06:34:10.854Z,20.8
2018-09-24T06:35:00.868Z,20.7
2018-09-24T06:35:50.608Z,20.7
2018-09-24T06:36:41.342Z,20.7
2018-09-24T06:37:30.432Z,20.7
2018-09-24T06:38:20.232Z,20.8
2018-09-24T06:39:10.874Z,20.8
2018-09-24T06:40:01.317Z,20.8
2018-09-24T06:40:50.987Z,20.8
2018-09-24T06:41:41.674Z,20.8
2018-09-24T06:42:31.964Z,20.7
2018-09-24T06:43:21.870Z,20.8
2018-09-24T06:44:10.780Z,20.8
2018-09-24T06:45:01.320Z,20.8
2018-09-24T06:45:52.304Z,20.8
2018-09-24T06:46:41.840Z,20.8
2018-09-24T06:47:32.449Z,20.8
2018-09-24T06:48:21.929Z,20.8
2018-09-24T06:49:11.346Z,20.7
2018-09-24T06:50:02.355Z,20.8
2018-09-24T06:50:52.115Z,20.8
2018-09-24T06:51:42.461Z,20.8
2018-09-24T06:52:32.559Z,20.8
2018-09-24T06:53:21.971Z,20.8
2018-09-24T06:54:12.156Z,20.8
2018-09-24T06:55:01.889Z,20.8
2018-09-24T06:55:51.902Z,20.8
2018-09-24T06:56:42.874Z,20.8
2018-09-24T06:57:32.314Z,20.8
2018-09-24T06:58:22.368Z,20.8
2018-09-24T06:59:12.698Z,20.8
2018-09-24T07:00:02.826Z,20.8
2018-09-24T07:00:51.802Z,20.8
2018-09-24T07:01:42.391Z,20.8
2018-09-24T07:02:33.257Z,20.8
2018-09-24T07:03:22.286Z,20.8
2018-09-24T07:04:13.163Z,20.8
2018-09-24T07:05:02.715Z,20.8
2018-09-24T07:05:53.945Z,20.8
2018-09-24T07:06:43.045Z,20.8
2018-09-24T07:07:33.435Z,20.8
2018-09-24T07:08:23.152Z,20.8
2018-09-24T07:09:13.159Z,20.8
2018-09-24T07:10:02.653Z,20.8
2018-09-24T07:10:52.968Z,20.8
2018-09-24T07:11:44.909Z,20.8
2018-09-24T07:12:35.038Z,20.8
2018-09-24T07:13:25.545Z,20.8
2018-09-24T07:14:15.042Z,20.8
2018-09-24T07:15:03.353Z,20.8
2018-09-24T07:15:53.932Z,20.8
2018-09-24T07:16:43.955Z,20.8
2018-09-24T07:17:34.333Z,20.8
2018-09-24T07:18:24.942Z,20.8
2018-09-24T07:19:13.348Z,20.8
2018-09-24T07:20:03.430Z,20.8
2018-09-24T07:20:54.345Z,20.8
2018-09-24T07:21:44.800Z,20.8
2018-09-24T07:22:34.162Z,20.8
2018-09-24T07:23:25.588Z,20.8
2018-09-24T07:24:13.788Z,20.8
2018-09-24T07:25:04.676Z,20.8
2018-09-24T07:25:55.012Z,20.8
2018-09-24T07:26:44.505Z,20.8
2018-09-24T07:27:35.110Z,20.8
2018-09-24T07:28:26.712Z,20.8
2018-09-24T07:29:14.472Z,20.8
2018-09-24T07:30:05.720Z,20.8
2018-09-24T07:30:54.980Z,20.8
2018-09-24T07:31:45.293Z,20.8
2018-09-24T07:32:34.955Z,20.8
2018-09-24T07:33:27.704Z,20.8
2018-09-24T07:34:15.915Z,20.8
2018-09-24T07:35:05.959Z,20.8
2018-09-24T07:35:55.321Z,20.8
2018-09-24T07:36:45.284Z,20.8
2018-09-24T07:37:35.892Z,20.8
2018-09-24T07:38:25.691Z,20.8
2018-09-24T07:39:15.439Z,20.8
2018-09-24T07:40:05.507Z,20.8
2018-09-24T07:40:55.353Z,20.8
2018-09-24T07:41:45.456Z,20.8
2018-09-24T07:42:35.974Z,20.8
2018-09-24T07:43:27.470Z,20.8
2018-09-24T07:44:15.861Z,20.8
2018-09-24T07:45:06.179Z,20.8
2018-09-24T07:45:54.914Z,20.8
2018-09-24T07:46:46.586Z,20.9
2018-09-24T07:47:36.072Z,20.9
2018-09-24T07:48:26.418Z,20.9
2018-09-24T07:49:16.808Z,20.9
2018-09-24T07:50:06.310Z,20.9
2018-09-24T07:50:56.398Z,20.8
2018-09-24T07:51:45.538Z,20.9
2018-09-24T07:52:36.735Z,20.9
2018-09-24T07:53:26.546Z,20.9
2018-09-24T07:54:17.669Z,20.9
2018-09-24T07:55:06.463Z,20.9
2018-09-24T07:55:56.225Z,20.9
2018-09-24T07:56:46.855Z,20.9
2018-09-24T07:57:36.872Z,20.9
2018-09-24T07:58:26.688Z,20.9
2018-09-24T07:59:17.345Z,20.9
2018-09-24T08:00:06.815Z,20.9
2018-09-24T08:00:58.410Z,20.9
2018-09-24T08:01:47.166Z,20.9
2018-09-24T08:02:36.660Z,20.9
2018-09-24T08:03:27.292Z,20.9
2018-09-24T08:04:16.612Z,20.9
2018-09-24T08:05:06.910Z,20.9
2018-09-24T08:05:57.257Z,20.9
2018-09-24T08:06:47.366Z,21
2018-09-24T08:07:40.265Z,20.9
2018-09-24T08:08:27.740Z,21
2018-09-24T08:09:18.078Z,20.9
2018-09-24T08:10:08.617Z,21
2018-09-24T08:10:58.659Z,21
2018-09-24T08:11:47.917Z,21
2018-09-24T08:12:37.762Z,21
2018-09-24T08:13:29.737Z,21
2018-09-24T08:14:18.231Z,21
2018-09-24T08:15:07.989Z,21
2018-09-24T08:15:58.877Z,21
2018-09-24T08:16:48.419Z,21
2018-09-24T08:17:38.407Z,21
2018-09-24T08:18:28.292Z,21
2018-09-24T08:19:19.065Z,21
2018-09-24T08:20:08.549Z,21.1
2018-09-24T08:20:58.911Z,21.1
2018-09-24T08:21:49.058Z,21
2018-09-24T08:22:39.051Z,21
2018-09-24T08:23:29.759Z,21.1
2018-09-24T08:24:19.479Z,21.1
2018-09-24T08:25:09.245Z,21.1
2018-09-24T08:25:59.873Z,21.1
2018-09-24T08:26:48.842Z,21.1
2018-09-24T08:27:38.840Z,21.1
2018-09-24T08:28:29.433Z,21.1
2018-09-24T08:29:19.508Z,21.1
2018-09-24T08:30:09.621Z,21.1
2018-09-24T08:30:59.660Z,21.1
2018-09-24T08:31:50.315Z,21.1
2018-09-24T08:32:40.122Z,21.1
2018-09-24T08:33:29.870Z,21.1
2018-09-24T08:34:20.167Z,21.1
2018-09-24T08:35:09.955Z,21.1
2018-09-24T08:35:59.867Z,21.1
2018-09-24T08:36:50.152Z,21.1
2018-09-24T08:37:39.972Z,21.1
2018-09-24T08:38:30.071Z,21.1
2018-09-24T08:39:19.789Z,21.1
2018-09-24T08:41:49.100Z,21.1
2018-09-24T08:43:30.692Z,21.1
2018-09-24T08:44:21.666Z,21.1
2018-09-24T08:46:51.170Z,21.1
2018-09-24T08:58:31.833Z,21.2
2018-09-24T09:00:10.804Z,21.2
2018-09-24T09:01:52.029Z,21.2
2018-09-24T09:02:42.830Z,21.2
2018-09-24T09:03:31.638Z,21.2
2018-09-24T09:05:10.571Z,21.2
2018-09-24T09:06:02.586Z,21.2
2018-09-24T09:06:51.950Z,21.2
2018-09-24T09:07:42.233Z,21.2
2018-09-24T09:10:12.461Z,21.2
2018-09-24T09:11:02.428Z,21.2
2018-09-24T09:11:51.765Z,21.2
2018-09-24T09:12:42.630Z,21.2
2018-09-24T09:13:32.465Z,21.2
2018-09-24T09:14:23.281Z,21.2
2018-09-24T09:15:12.297Z,21.2
2018-09-24T09:16:02.935Z,21.2
2018-09-24T09:16:51.800Z,21.2
2018-09-24T09:17:42.752Z,21.2
2018-09-24T09:18:32.837Z,21.2
2018-09-24T09:19:23.432Z,21.2
2018-09-24T09:20:13.147Z,21.2
2018-09-24T09:21:03.322Z,21.2
2018-09-24T09:21:52.787Z,21.2
2018-09-24T09:22:43.135Z,21.2
2018-09-24T16:40:11.107Z,21
2018-09-24T16:41:00.343Z,20.9
2018-09-24T16:41:50.128Z,20.9
2018-09-24T16:42:40.796Z,21
2018-09-24T16:43:31.590Z,20.9
2018-09-24T16:44:20.611Z,20.9
2018-09-24T16:45:10.256Z,20.9
2018-09-24T16:46:00.511Z,20.9
2018-09-24T16:46:50.288Z,20.9
2018-09-24T16:47:40.793Z,20.9
2018-09-24T16:48:30.911Z,20.9
2018-09-24T16:49:20.258Z,20.9
2018-09-24T16:50:11.771Z,20.9
2018-09-24T16:51:00.630Z,20.9
2018-09-24T16:51:50.105Z,20.9
2018-09-24T16:52:40.451Z,20.9
2018-09-24T16:53:30.801Z,20.9
2018-09-24T16:54:20.850Z,20.9
2018-09-24T16:55:10.645Z,20.9
2018-09-24T16:56:00.705Z,20.9
2018-09-24T16:56:50.470Z,20.9
2018-09-24T16:57:41.097Z,20.9
2018-09-24T16:58:30.901Z,20.9
2018-09-24T16:59:20.939Z,20.9
2018-09-24T17:00:11.637Z,20.9
2018-09-24T17:01:01.947Z,20.9
2018-09-24T17:01:51.730Z,20.9
2018-09-24T17:02:40.368Z,20.9
2018-09-24T17:03:32.112Z,20.9
2018-09-24T17:04:20.774Z,20.9
2018-09-24T17:05:12.170Z,20.9
2018-09-24T17:06:02.507Z,20.9
2018-09-24T17:06:52.439Z,20.9
2018-09-24T17:07:42.059Z,20.9
2018-09-24T17:08:32.184Z,20.9
2018-09-24T17:09:22.159Z,20.9
2018-09-24T17:10:12.494Z,20.8
2018-09-24T17:11:00.977Z,20.8
2018-09-24T17:11:54.819Z,20.8
2018-09-24T17:12:42.474Z,20.8
2018-09-24T17:13:33.074Z,20.8
2018-09-24T17:14:22.841Z,20.8
2018-09-24T17:15:12.717Z,20.8
2018-09-24T17:16:02.199Z,20.8
2018-09-24T17:16:53.030Z,20.8
2018-09-24T17:17:43.121Z,20.8
2018-09-24T17:18:32.633Z,20.8
2018-09-24T17:19:23.568Z,20.8
2018-09-24T17:20:13.005Z,20.8
2018-09-24T17:21:03.611Z,20.8
2018-09-24T17:21:52.871Z,20.8
2018-09-24T17:22:43.781Z,20.8
2018-09-24T17:23:33.059Z,20.8
2018-09-24T17:24:22.807Z,20.8
2018-09-24T17:25:13.421Z,20.8
2018-09-24T17:26:03.745Z,20.8
2018-09-24T17:26:54.085Z,20.8
2018-09-24T17:27:44.168Z,20.7
2018-09-24T17:28:33.941Z,20.8
2018-09-24T17:29:25.327Z,20.7
2018-09-24T17:30:13.551Z,20.7
2018-09-24T17:31:04.378Z,20.7
2018-09-24T17:31:53.597Z,20.7
2018-09-24T17:32:43.980Z,20.7
2018-09-24T17:33:34.358Z,20.7
2018-09-24T17:34:24.119Z,20.7
2018-09-24T17:35:15.325Z,20.7
2018-09-24T17:36:04.836Z,20.6
2018-09-24T17:36:55.040Z,20.6
2018-09-24T17:37:44.892Z,20.7
2018-09-24T17:38:34.402Z,20.6
2018-09-24T17:39:24.501Z,20.6
2018-09-24T17:40:14.523Z,20.6
2018-09-24T17:41:05.239Z,20.6
2018-09-24T17:41:54.123Z,20.6
2018-09-24T17:42:45.009Z,20.6
2018-09-24T17:43:33.940Z,20.6
2018-09-24T17:44:24.586Z,20.6
2018-09-24T17:45:15.203Z,20.6
2018-09-24T17:46:06.598Z,20.6
2018-09-24T17:46:55.362Z,20.6
2018-09-24T17:47:45.723Z,20.6
2018-09-24T17:48:35.163Z,20.6
2018-09-24T17:49:25.211Z,20.6
2018-09-24T17:50:14.953Z,20.6
2018-09-24T17:51:05.929Z,20.6
2018-09-24T17:51:55.116Z,20.5
2018-09-24T17:52:46.025Z,20.5
2018-09-24T17:53:35.213Z,20.5
2018-09-24T17:54:26.167Z,20.5
2018-09-24T17:55:15.978Z,20.5
2018-09-24T17:56:05.668Z,20.5
2018-09-24T17:56:56.288Z,20.4
2018-09-24T17:57:45.842Z,20.5
2018-09-24T17:58:36.723Z,20.5
2018-09-24T17:59:25.690Z,20.5
2018-09-24T18:00:17.038Z,20.4
2018-09-24T18:01:06.115Z,20.5
2018-09-24T18:01:56.987Z,20.4
2018-09-24T18:02:46.192Z,20.4
2018-09-24T18:03:37.079Z,20.4
2018-09-24T18:04:25.544Z,20.4
2018-09-24T18:05:16.156Z,20.4
2018-09-24T18:06:07.610Z,20.4
2018-09-24T18:06:55.923Z,20.4
2018-09-24T18:07:47.160Z,20.4
2018-09-24T18:08:36.939Z,20.4
2018-09-24T18:09:26.696Z,20.4
2018-09-24T18:10:17.047Z,20.4
2018-09-24T18:11:07.406Z,20.4
2018-09-24T18:11:57.588Z,20.4
2018-09-24T18:12:47.276Z,20.4
2018-09-24T18:13:36.512Z,20.4
2018-09-24T18:14:27.691Z,20.4
2018-09-24T18:15:16.926Z,20.3
2018-09-24T18:16:06.678Z,20.3
2018-09-24T18:16:57.861Z,20.4
2018-09-24T18:17:49.081Z,20.3
2018-09-24T18:18:38.229Z,20.3
2018-09-24T18:19:27.776Z,20.3
2018-09-24T18:20:18.098Z,20.3
2018-09-24T18:21:07.621Z,20.3
2018-09-24T18:21:57.429Z,20.3
2018-09-24T18:22:47.458Z,20.3
2018-09-24T18:23:37.498Z,20.3
2018-09-24T18:24:29.018Z,20.3
2018-09-24T18:25:17.921Z,20.3
2018-09-24T18:26:08.020Z,20.3
2018-09-24T18:26:58.599Z,20.3
2018-09-24T18:27:47.238Z,20.3
2018-09-24T18:28:38.688Z,20.3
2018-09-24T18:29:28.228Z,20.3
2018-09-24T18:30:18.331Z,20.3
2018-09-24T18:31:08.639Z,20.3
2018-09-24T18:31:57.959Z,20.3
2018-09-24T18:32:48.482Z,20.2
2018-09-24T18:33:38.851Z,20.3
2018-09-24T18:34:29.146Z,20.2
2018-09-24T18:35:18.946Z,20.2
2018-09-24T18:36:08.458Z,20.3
2018-09-24T18:36:59.401Z,20.2
2018-09-24T18:37:50.068Z,20.3
2018-09-24T18:38:39.356Z,20.2
2018-09-24T18:39:29.132Z,20.2
2018-09-24T18:40:19.702Z,20.2
2018-09-24T18:41:10.828Z,20.2
2018-09-24T18:41:59.686Z,20.2
2018-09-24T18:42:50.133Z,20.2
2018-09-24T18:43:39.889Z,20.2
2018-09-24T18:44:30.746Z,20.1
2018-09-24T18:45:19.771Z,20.2
2018-09-24T18:46:10.056Z,20.2
2018-09-24T18:46:59.567Z,20.2
2018-09-24T18:47:49.148Z,20.2
2018-09-24T18:48:40.213Z,20.2
2018-09-24T18:49:30.348Z,20.2
2018-09-24T18:50:19.838Z,20.2
2018-09-24T18:51:09.332Z,20.2
2018-09-24T18:52:00.482Z,20.2
2018-09-24T18:52:50.010Z,20.2
2018-09-24T18:53:40.052Z,20.2
2018-09-24T18:54:30.915Z,20.2
2018-09-24T18:55:19.913Z,20.2
2018-09-24T18:56:10.555Z,20.2
2018-09-24T18:57:00.093Z,20.2
2018-09-24T18:57:52.333Z,20.2
2018-09-24T18:58:41.012Z,20.2
2018-09-24T18:59:31.402Z,20.2
2018-09-24T19:00:21.159Z,20.2
2018-09-24T19:01:11.517Z,20.2
2018-09-24T19:02:01.002Z,20.2
2018-09-24T19:02:51.075Z,20.2
2018-09-24T19:03:41.100Z,20.2
2018-09-24T19:04:30.642Z,20.2
2018-09-24T19:05:21.813Z,20.2
2018-09-24T19:06:11.324Z,20.2
2018-09-24T19:07:01.372Z,20.2
2018-09-24T19:07:51.495Z,20.2
2018-09-24T19:08:40.944Z,20.1
2018-09-24T19:09:31.507Z,20.2
2018-09-24T19:10:21.282Z,20.2
2018-09-24T19:11:11.080Z,20.2
2018-09-24T19:12:02.419Z,20.2
2018-09-24T19:12:51.836Z,20.2
2018-09-24T19:13:41.869Z,20.2
2018-09-24T19:14:31.662Z,20.1
2018-09-24T19:15:21.512Z,20.2
2018-09-24T19:16:12.112Z,20.2
2018-09-24T19:17:01.567Z,20.2
2018-09-24T19:17:52.550Z,20.2
2018-09-24T19:18:43.461Z,20.2
2018-09-24T19:19:32.584Z,20.2
2018-09-24T19:20:21.543Z,20.2
2018-09-24T19:21:12.157Z,20.2
2018-09-24T19:22:02.749Z,20.2
2018-09-24T19:22:52.001Z,20.2
2018-09-24T19:23:42.976Z,20.2
2018-09-24T19:24:32.706Z,20.2
2018-09-24T19:25:21.873Z,20.2
2018-09-24T19:26:12.528Z,20.2
2018-09-24T19:27:03.362Z,20.2
2018-09-24T19:27:52.691Z,20.2
2018-09-24T19:28:43.221Z,20.2
2018-09-24T19:29:33.063Z,20.2
2018-09-24T19:30:23.635Z,20.1
2018-09-24T19:31:12.687Z,20.2
2018-09-24T19:32:02.771Z,20.2
2018-09-24T19:32:53.438Z,20.2